createdAt,value
2023-01-23T00:01:33.050Z,13.30
2023-01-23T00:04:05.568Z,12.70
2023-01-23T00:06:37.063Z,15.02
2023-01-23T00:09:09.462Z,14.35
2023-01-23T00:11:40.963Z,15.45
2023-01-23T00:14:12.383Z,14.63
2023-01-23T00:16:43.803Z,15.80
2023-01-23T00:19:15.317Z,17.27
2023-01-23T00:21:46.718Z,17.77
2023-01-23T00:24:18.239Z,15.77
2023-01-23T00:26:49.666Z,20.88
2023-01-23T00:29:21.092Z,16.55
2023-01-23T00:31:52.589Z,17.23
2023-01-23T00:34:24.070Z,15.27
2023-01-23T00:36:55.516Z,16.17
2023-01-23T00:39:26.979Z,14.57
2023-01-23T00:41:58.413Z,14.65
2023-01-23T00:44:29.978Z,17.10
2023-01-23T00:47:01.445Z,16.90
2023-01-23T00:49:32.883Z,18.95
2023-01-23T00:52:04.450Z,15.68
2023-01-23T00:54:35.969Z,16.35
2023-01-23T00:57:07.408Z,15.83
2023-01-23T00:59:38.786Z,17.40
2023-01-23T01:02:10.228Z,14.97
2023-01-23T01:04:41.693Z,16.02
2023-01-23T01:07:13.187Z,16.25
2023-01-23T01:09:44.611Z,18.58
2023-01-23T01:12:16.034Z,16.23
2023-01-23T01:14:47.471Z,16.05
2023-01-23T01:17:18.968Z,14.75
2023-01-23T01:19:50.377Z,18.23
2023-01-23T01:22:21.816Z,13.98
2023-01-23T01:24:53.303Z,17.10
2023-01-23T01:27:25.270Z,14.82
2023-01-23T01:29:56.731Z,15.82
2023-01-23T01:32:28.273Z,15.07
2023-01-23T01:34:59.748Z,14.75
2023-01-23T01:37:36.689Z,15.05
2023-01-23T01:40:13.185Z,16.88
2023-01-23T01:42:49.702Z,16.33
2023-01-23T01:45:58.925Z,14.13
2023-01-23T01:48:42.922Z,13.43
2023-01-23T01:51:44.128Z,17.03
2023-01-23T01:54:46.959Z,16.65
2023-01-23T01:57:23.784Z,18.02
2023-01-23T02:00:17.472Z,15.50
2023-01-23T02:03:07.568Z,15.90
2023-01-23T02:05:45.299Z,16.73
2023-01-23T02:08:41.574Z,16.80
2023-01-23T02:11:13.199Z,15.63
2023-01-23T02:13:45.361Z,12.63
2023-01-23T02:16:23.723Z,17.63
2023-01-23T02:19:00.895Z,14.70
2023-01-23T02:21:36.016Z,15.43
2023-01-23T02:24:28.618Z,15.70
2023-01-23T02:27:00.098Z,17.63
2023-01-23T02:29:42.796Z,16.85
2023-01-23T02:32:14.322Z,16.70
2023-01-23T02:34:45.808Z,19.02
2023-01-23T02:37:18.053Z,15.15
2023-01-23T02:39:49.515Z,16.85
2023-01-23T02:42:23.182Z,19.02
2023-01-23T02:44:54.607Z,17.13
2023-01-23T02:47:26.097Z,17.50
2023-01-23T02:49:57.543Z,16.20
2023-01-23T02:52:29.153Z,18.85
2023-01-23T02:55:00.654Z,15.52
2023-01-23T02:57:32.101Z,19.58
2023-01-23T03:00:04.402Z,19.30
2023-01-23T03:02:35.818Z,24.52
2023-01-23T03:05:07.687Z,18.48
2023-01-23T03:07:39.124Z,21.10
2023-01-23T03:10:12.120Z,19.70
2023-01-23T03:12:43.621Z,19.38
2023-01-23T03:15:15.170Z,23.85
2023-01-23T03:17:46.595Z,18.75
2023-01-23T03:20:19.562Z,21.48
2023-01-23T03:22:51.129Z,23.42
2023-01-23T03:25:22.987Z,21.07
2023-01-23T03:27:54.420Z,19.20
2023-01-23T03:30:25.882Z,22.63
2023-01-23T03:32:57.364Z,20.53
2023-01-23T03:35:28.766Z,21.08
2023-01-23T03:38:00.205Z,24.37
2023-01-23T03:40:31.720Z,22.10
2023-01-23T03:43:03.507Z,24.65
2023-01-23T03:45:35.037Z,27.77
2023-01-23T03:48:06.685Z,26.10
2023-01-23T03:50:38.107Z,23.75
2023-01-23T03:53:09.543Z,23.07
2023-01-23T03:55:41.002Z,23.20
2023-01-23T03:58:12.480Z,22.30
2023-01-23T04:00:44.033Z,21.90
2023-01-23T04:03:15.448Z,23.90
2023-01-23T04:05:46.868Z,28.02
2023-01-23T04:08:18.366Z,22.90
2023-01-23T04:10:50.079Z,20.90
2023-01-23T04:13:21.489Z,22.58
2023-01-23T04:15:52.905Z,24.63
2023-01-23T04:18:24.380Z,21.83
2023-01-23T04:20:56.458Z,20.38
2023-01-23T04:23:28.447Z,21.45
2023-01-23T04:25:59.961Z,19.17
2023-01-23T04:28:31.424Z,22.53
2023-01-23T04:31:02.906Z,26.80
2023-01-23T04:33:34.653Z,24.73
2023-01-23T04:36:07.214Z,21.00
2023-01-23T04:38:38.750Z,23.27
2023-01-23T04:41:21.722Z,25.90
2023-01-23T04:43:53.121Z,22.77
2023-01-23T04:46:24.580Z,19.77
2023-01-23T04:48:56.025Z,22.23
2023-01-23T04:51:27.496Z,22.23
2023-01-23T04:53:58.935Z,22.10
2023-01-23T04:56:30.361Z,23.20
2023-01-23T04:59:01.834Z,26.30
2023-01-23T05:01:33.613Z,20.77
2023-01-23T05:04:05.765Z,19.42
2023-01-23T05:06:37.217Z,22.13
2023-01-23T05:09:08.741Z,20.35
2023-01-23T05:11:40.257Z,22.15
2023-01-23T05:14:11.776Z,23.63
2023-01-23T05:16:43.232Z,26.67
2023-01-23T05:19:14.974Z,24.75
2023-01-23T05:21:46.408Z,22.60
2023-01-23T05:24:17.868Z,21.67
2023-01-23T05:26:49.371Z,24.65
2023-01-23T05:29:20.983Z,28.38
2023-01-23T05:31:52.483Z,28.88
2023-01-23T05:34:24.009Z,24.77
2023-01-23T05:36:55.476Z,24.92
2023-01-23T05:39:26.940Z,24.83
2023-01-23T05:41:58.430Z,23.23
2023-01-23T05:44:29.834Z,29.20
2023-01-23T05:47:01.263Z,30.00
2023-01-23T05:49:32.708Z,30.75
2023-01-23T05:52:04.244Z,30.27
2023-01-23T05:54:35.691Z,26.67
2023-01-23T05:57:08.932Z,27.33
2023-01-23T05:59:40.425Z,28.63
2023-01-23T06:02:12.044Z,27.95
2023-01-23T06:04:43.495Z,26.60
2023-01-23T06:07:17.084Z,24.58
2023-01-23T06:09:48.611Z,26.38
2023-01-23T06:12:20.044Z,28.45
2023-01-23T06:14:51.618Z,27.55
2023-01-23T06:17:23.822Z,26.13
2023-01-23T06:19:55.228Z,27.38
2023-01-23T06:22:26.736Z,24.52
2023-01-23T06:24:58.200Z,25.23
2023-01-23T06:27:29.730Z,24.97
2023-01-23T06:30:01.170Z,24.42
2023-01-23T06:32:32.667Z,23.58
2023-01-23T06:35:04.387Z,24.50
2023-01-23T06:37:35.819Z,25.30
2023-01-23T06:40:08.296Z,22.30
2023-01-23T06:42:43.300Z,23.48
2023-01-23T06:45:14.738Z,26.25
2023-01-23T06:47:46.151Z,26.33
2023-01-23T06:50:17.759Z,24.57
2023-01-23T06:52:49.270Z,23.42
2023-01-23T06:55:20.753Z,24.75
2023-01-23T06:57:52.150Z,20.27
2023-01-23T07:00:23.781Z,23.52
2023-01-23T07:02:55.250Z,26.35
2023-01-23T07:05:26.739Z,22.02
2023-01-23T07:07:58.533Z,24.83
2023-01-23T07:10:30.049Z,24.20
2023-01-23T07:13:01.505Z,22.45
2023-01-23T07:15:33.846Z,22.73
2023-01-23T07:18:05.285Z,23.58
2023-01-23T07:20:36.714Z,22.00
2023-01-23T07:23:10.096Z,25.50
2023-01-23T07:25:42.084Z,23.55
2023-01-23T07:28:13.931Z,25.85
2023-01-23T07:30:46.884Z,22.67
2023-01-23T07:33:18.369Z,23.55
2023-01-23T07:35:49.865Z,23.00
2023-01-23T07:38:21.712Z,23.20
2023-01-23T07:40:53.180Z,23.77
2023-01-23T07:43:24.778Z,25.17
2023-01-23T07:45:59.239Z,24.63
2023-01-23T07:48:30.716Z,27.23
2023-01-23T07:51:03.609Z,25.27
2023-01-23T07:53:35.133Z,27.10
2023-01-23T07:56:07.055Z,25.10
2023-01-23T07:58:38.508Z,23.02
2023-01-23T08:01:11.284Z,23.65
2023-01-23T08:03:42.969Z,24.92
2023-01-23T08:06:14.518Z,22.95
2023-01-23T08:08:48.588Z,26.40
2023-01-23T08:11:20.022Z,24.73
2023-01-23T08:13:51.441Z,23.85
2023-01-23T08:16:23.036Z,25.85
2023-01-23T08:18:54.531Z,22.75
2023-01-23T08:21:26.072Z,24.13
2023-01-23T08:23:57.519Z,24.42
2023-01-23T08:26:29.119Z,28.65
2023-01-23T08:29:00.536Z,26.87
2023-01-23T08:31:32.162Z,22.60
2023-01-23T08:34:03.726Z,21.02
2023-01-23T08:36:35.164Z,22.35
2023-01-23T08:39:06.623Z,24.10
2023-01-23T08:41:38.051Z,23.37
2023-01-23T08:44:09.436Z,23.55
2023-01-23T08:46:40.875Z,24.10
2023-01-23T08:49:12.442Z,25.42
2023-01-23T08:51:43.852Z,22.13
2023-01-23T08:54:15.321Z,25.13
2023-01-23T08:56:46.787Z,24.02
2023-01-23T08:59:18.258Z,22.03
2023-01-23T09:01:49.745Z,27.08
2023-01-23T09:04:21.235Z,26.05
2023-01-23T09:06:52.701Z,27.90
2023-01-23T09:09:24.280Z,25.92
2023-01-23T09:11:55.924Z,22.53
2023-01-23T09:14:27.397Z,25.85
2023-01-23T09:16:58.814Z,23.92
2023-01-23T09:19:33.413Z,24.20
2023-01-23T09:22:04.885Z,22.92
2023-01-23T09:24:36.369Z,22.60
2023-01-23T09:27:08.002Z,25.15
2023-01-23T09:29:39.396Z,22.45
2023-01-23T09:32:10.935Z,22.17
2023-01-23T09:34:42.780Z,23.17
2023-01-23T09:37:15.015Z,22.85
2023-01-23T09:39:46.461Z,22.80
2023-01-23T09:42:27.062Z,22.60
2023-01-23T09:45:04.043Z,22.37
2023-01-23T09:47:59.617Z,23.33
2023-01-23T09:50:36.194Z,21.70
2023-01-23T09:53:18.493Z,21.48
2023-01-23T09:56:12.319Z,21.17
2023-01-23T09:58:51.445Z,23.27
2023-01-23T10:01:26.258Z,22.48
2023-01-23T10:04:02.020Z,22.33
2023-01-23T10:07:13.583Z,19.15
2023-01-23T10:10:03.356Z,20.10
2023-01-23T10:13:04.671Z,21.63
2023-01-23T10:16:05.719Z,21.92
2023-01-23T10:18:41.545Z,23.27
2023-01-23T10:21:22.281Z,26.58
2023-01-23T10:24:10.936Z,20.85
2023-01-23T10:26:45.580Z,22.05
2023-01-23T10:29:32.207Z,19.55
2023-01-23T10:32:03.928Z,21.85
2023-01-23T10:34:53.598Z,20.08
2023-01-23T10:37:38.931Z,21.83
2023-01-23T10:40:14.791Z,22.20
2023-01-23T10:42:46.259Z,19.65
2023-01-23T10:45:19.690Z,20.98
2023-01-23T10:47:55.112Z,19.30
2023-01-23T10:50:38.091Z,20.85
2023-01-23T10:53:19.427Z,21.50
2023-01-23T10:55:52.673Z,19.00
2023-01-23T10:58:33.704Z,20.20
2023-01-23T11:01:07.343Z,17.92
2023-01-23T11:03:38.824Z,17.38
2023-01-23T11:06:17.383Z,20.33
2023-01-23T11:08:56.907Z,18.33
2023-01-23T11:11:30.875Z,16.70
2023-01-23T11:14:13.902Z,19.42
2023-01-23T11:16:45.342Z,17.55
2023-01-23T11:19:22.363Z,16.92
2023-01-23T11:22:00.097Z,17.38
2023-01-23T11:24:41.152Z,17.17
2023-01-23T11:27:13.091Z,17.02
2023-01-23T11:30:03.621Z,19.13
2023-01-23T11:32:59.302Z,16.90
2023-01-23T11:35:49.967Z,16.77
2023-01-23T11:38:30.856Z,17.15
2023-01-23T11:41:04.484Z,16.67
2023-01-23T11:43:35.994Z,16.90
2023-01-23T11:46:13.752Z,18.95
2023-01-23T11:49:03.281Z,16.67
2023-01-23T11:51:55.907Z,18.67
2023-01-23T11:55:04.907Z,16.75
2023-01-23T11:57:59.932Z,15.97
2023-01-23T12:01:09.065Z,17.67
2023-01-23T12:03:54.835Z,15.75
2023-01-23T12:06:43.794Z,16.52
2023-01-23T12:09:18.353Z,16.02
2023-01-23T12:12:03.795Z,15.45
2023-01-23T12:14:44.310Z,15.07
2023-01-23T12:17:41.775Z,13.95
2023-01-23T12:20:55.025Z,13.00
2023-01-23T12:23:36.468Z,12.40
2023-01-23T12:26:16.964Z,13.07
2023-01-23T12:29:10.426Z,13.63
2023-01-23T12:31:53.484Z,14.40
2023-01-23T12:34:45.832Z,12.15
2023-01-23T12:37:43.921Z,11.25
2023-01-23T12:40:41.867Z,11.35
2023-01-23T12:43:21.625Z,10.02
2023-01-23T12:46:01.147Z,10.57
2023-01-23T12:48:39.237Z,11.40
2023-01-23T12:51:18.358Z,11.35
2023-01-23T12:53:57.179Z,11.45
2023-01-23T12:56:32.556Z,11.32
2023-01-23T12:59:36.034Z,11.85
2023-01-23T13:02:29.191Z,11.85
2023-01-23T13:05:24.126Z,12.60
2023-01-23T13:08:07.098Z,13.32
2023-01-23T13:11:07.335Z,13.45
2023-01-23T13:13:39.748Z,14.15
2023-01-23T13:16:16.991Z,14.40
2023-01-23T13:18:54.810Z,13.52
2023-01-23T13:21:26.306Z,13.93
2023-01-23T13:24:20.658Z,13.57
2023-01-23T13:26:52.151Z,13.82
2023-01-23T13:29:49.281Z,12.55
2023-01-23T13:32:22.766Z,14.30
2023-01-23T13:34:54.533Z,12.00
2023-01-23T13:37:28.949Z,11.80
2023-01-23T13:40:15.517Z,11.80
2023-01-23T13:42:47.157Z,11.20
2023-01-23T13:45:23.713Z,10.40
2023-01-23T14:22:37.668Z,8.73
2023-01-23T14:25:17.523Z,7.47
2023-01-23T14:27:53.584Z,7.15
2023-01-23T14:30:25.744Z,6.97
2023-01-23T14:32:57.750Z,7.63
2023-01-23T14:35:31.668Z,7.63
2023-01-23T14:38:06.518Z,7.90
2023-01-23T14:40:50.260Z,7.50
2023-01-23T14:43:28.964Z,7.43
2023-01-23T14:46:06.685Z,7.30
2023-01-23T14:48:42.829Z,7.93
2023-01-23T14:51:23.846Z,8.13
2023-01-23T14:54:00.541Z,8.45
2023-01-23T14:56:35.063Z,8.30
2023-01-23T14:59:15.867Z,9.13
2023-01-23T15:01:58.470Z,8.95
2023-01-23T15:04:30.243Z,9.10
2023-01-23T15:07:02.714Z,9.65
2023-01-23T15:09:39.190Z,10.32
2023-01-23T15:12:18.844Z,9.48
2023-01-23T15:14:54.658Z,10.40
2023-01-23T15:17:26.180Z,9.60
2023-01-23T15:19:57.631Z,10.23
2023-01-23T15:22:30.296Z,9.70
2023-01-23T15:25:27.696Z,9.63
2023-01-23T15:27:59.284Z,10.03
2023-01-23T15:30:33.435Z,9.63
2023-01-23T15:33:22.839Z,9.45
2023-01-23T15:36:04.726Z,8.32
2023-01-23T15:38:36.233Z,8.30
2023-01-23T15:41:09.640Z,8.52
2023-01-23T15:43:41.196Z,7.70
2023-01-23T15:46:13.111Z,7.65
2023-01-23T15:48:44.571Z,7.25
2023-01-23T15:51:15.989Z,6.80
2023-01-23T15:53:47.547Z,7.22
2023-01-23T15:56:28.178Z,7.85
2023-01-23T15:58:59.771Z,7.30
2023-01-23T16:01:31.238Z,7.50
2023-01-23T16:04:02.685Z,7.57
2023-01-23T16:06:34.534Z,7.40
2023-01-23T16:09:06.221Z,7.80
2023-01-23T16:11:37.839Z,8.85
2023-01-23T16:14:15.506Z,8.27
2023-01-23T16:16:47.133Z,8.25
2023-01-23T16:19:18.669Z,8.05
2023-01-23T16:22:03.379Z,7.75
2023-01-23T16:24:39.425Z,7.97
2023-01-23T16:27:18.970Z,8.33
2023-01-23T16:29:50.449Z,8.18
2023-01-23T16:32:21.945Z,7.80
2023-01-23T16:34:53.541Z,7.50
2023-01-23T16:37:25.027Z,8.65
2023-01-23T16:39:56.484Z,8.00
2023-01-23T16:42:29.955Z,8.10
2023-01-23T16:45:01.411Z,8.23
2023-01-23T16:47:32.824Z,9.05
2023-01-23T16:50:04.595Z,8.82
2023-01-23T16:52:36.003Z,9.73
2023-01-23T16:55:21.457Z,8.73
2023-01-23T16:57:56.252Z,8.75
2023-01-23T17:00:34.732Z,8.45
2023-01-23T17:03:09.133Z,8.55
2023-01-23T17:05:40.625Z,8.60
2023-01-23T17:08:23.490Z,9.30
2023-01-23T17:10:57.648Z,10.80
2023-01-23T17:13:31.502Z,9.52
2023-01-23T17:16:07.404Z,9.23
2023-01-23T17:18:47.651Z,9.60
2023-01-23T17:21:22.495Z,9.00
2023-01-23T17:23:53.959Z,9.70
2023-01-23T17:26:25.542Z,11.02
2023-01-23T17:28:57.170Z,10.13
2023-01-23T17:31:29.101Z,11.77
2023-01-23T17:34:02.936Z,10.73
2023-01-23T17:36:35.323Z,10.45
2023-01-23T17:39:07.027Z,11.00
2023-01-23T17:41:38.629Z,10.30
2023-01-23T17:44:10.102Z,10.98
2023-01-23T17:46:41.878Z,10.50
2023-01-23T17:49:29.374Z,11.95
2023-01-23T17:52:01.240Z,10.20
2023-01-23T17:54:32.752Z,10.40
2023-01-23T17:57:04.484Z,9.90
2023-01-23T17:59:35.975Z,10.18
2023-01-23T18:02:25.451Z,9.27
2023-01-23T18:04:56.900Z,10.25
2023-01-23T18:07:28.377Z,10.52
2023-01-23T18:09:59.875Z,9.88
2023-01-23T18:12:46.522Z,10.20
2023-01-23T18:15:57.344Z,11.00
2023-01-23T18:18:30.122Z,10.90
2023-01-23T18:21:02.381Z,12.10
2023-01-23T18:23:36.814Z,11.65
2023-01-23T18:26:31.561Z,11.80
2023-01-23T18:29:25.965Z,11.65
2023-01-23T18:32:12.382Z,10.97
2023-01-23T18:35:22.385Z,11.60
2023-01-23T18:37:54.015Z,11.57
2023-01-23T18:40:35.537Z,11.98
2023-01-23T18:43:19.247Z,11.27
2023-01-23T18:45:50.984Z,11.45
2023-01-23T18:48:25.481Z,10.88
2023-01-23T18:51:15.980Z,12.20
2023-01-23T18:54:05.970Z,12.15
2023-01-23T18:56:56.013Z,13.75
2023-01-23T18:59:43.003Z,14.50
2023-01-23T19:02:34.647Z,13.10
2023-01-23T19:05:12.364Z,13.45
2023-01-23T19:07:45.260Z,13.18
2023-01-23T19:10:25.709Z,13.38
2023-01-23T19:13:19.916Z,13.30
2023-01-23T19:16:00.432Z,12.90
2023-01-23T19:18:48.624Z,13.17
2023-01-23T19:21:23.899Z,14.68
2023-01-23T19:24:02.706Z,26.67
2023-01-23T19:26:36.749Z,17.52
2023-01-23T19:29:21.023Z,13.93
2023-01-23T19:32:07.243Z,13.68
2023-01-23T19:34:39.201Z,14.30
2023-01-23T19:37:10.628Z,13.60
2023-01-23T19:39:42.170Z,13.97
2023-01-23T19:42:13.949Z,14.82
2023-01-23T19:44:45.410Z,14.52
2023-01-23T19:47:16.822Z,14.00
2023-01-23T19:49:48.282Z,14.93
2023-01-23T19:52:19.944Z,15.03
2023-01-23T19:54:51.359Z,14.32
2023-01-23T19:57:22.839Z,15.02
2023-01-23T19:59:54.314Z,15.60
2023-01-23T20:02:25.742Z,16.30
2023-01-23T20:04:57.255Z,15.95
2023-01-23T20:07:28.705Z,16.85
2023-01-23T20:10:00.114Z,17.13
2023-01-23T20:12:31.519Z,18.38
2023-01-23T20:15:02.953Z,16.53
2023-01-23T20:17:34.405Z,17.85
2023-01-23T20:20:07.541Z,17.67
2023-01-23T20:22:39.674Z,18.63
2023-01-23T20:25:14.604Z,19.10
2023-01-23T20:27:46.093Z,18.38
2023-01-23T20:30:20.123Z,17.95
2023-01-23T20:32:51.748Z,18.75
2023-01-23T20:35:23.171Z,18.80
2023-01-23T20:37:54.594Z,19.83
2023-01-23T20:40:25.991Z,19.67
2023-01-23T20:42:57.495Z,20.20
2023-01-23T20:45:28.963Z,21.07
2023-01-23T20:48:00.411Z,20.13
2023-01-23T20:50:31.900Z,20.48
2023-01-23T20:53:03.399Z,21.42
2023-01-23T20:55:34.889Z,22.30
2023-01-23T20:58:06.339Z,21.90
2023-01-23T21:00:37.800Z,21.77
2023-01-23T21:03:09.286Z,21.83
2023-01-23T21:05:40.799Z,22.25
2023-01-23T21:08:12.206Z,24.40
2023-01-23T21:10:43.612Z,23.65
2023-01-23T21:13:15.045Z,22.88
2023-01-23T21:16:03.997Z,23.83
2023-01-23T21:18:37.311Z,23.85
2023-01-23T21:21:09.269Z,23.25
2023-01-23T21:23:41.176Z,23.25
2023-01-23T21:26:12.641Z,23.65
2023-01-23T21:28:46.640Z,24.40
2023-01-23T21:31:21.547Z,24.27
2023-01-23T21:33:53.127Z,23.90
2023-01-23T21:36:24.967Z,23.83
2023-01-23T21:38:56.647Z,25.13
2023-01-23T21:41:28.208Z,23.02
2023-01-23T21:43:59.660Z,23.77
2023-01-23T21:46:31.213Z,25.70
2023-01-23T21:49:03.006Z,24.27
2023-01-23T21:51:34.472Z,24.63
2023-01-23T21:54:05.935Z,23.48
2023-01-23T21:56:37.478Z,25.77
2023-01-23T21:59:10.636Z,24.40
2023-01-23T22:01:42.661Z,24.67
2023-01-23T22:04:16.936Z,26.45
2023-01-23T22:06:55.419Z,24.55
2023-01-23T22:09:27.063Z,25.73
2023-01-23T22:11:58.467Z,25.70
2023-01-23T22:14:30.027Z,24.40
2023-01-23T22:17:01.482Z,25.30
2023-01-23T22:19:32.933Z,24.80
2023-01-23T22:22:04.364Z,24.95
2023-01-23T22:24:35.778Z,23.98
2023-01-23T22:27:07.197Z,25.77
2023-01-23T22:29:38.590Z,24.88
2023-01-23T22:32:10.442Z,24.10
2023-01-23T22:34:41.935Z,23.98
2023-01-23T22:37:13.460Z,24.10
2023-01-23T22:39:44.972Z,24.90
2023-01-23T22:42:16.436Z,24.33
2023-01-23T22:44:47.923Z,23.60
2023-01-23T22:47:19.341Z,23.70
2023-01-23T22:49:50.727Z,23.60
2023-01-23T22:52:22.154Z,24.20
2023-01-23T22:54:53.636Z,25.00
2023-01-23T22:57:25.090Z,22.58
2023-01-23T22:59:56.543Z,22.53
2023-01-23T23:02:27.997Z,23.85
2023-01-23T23:04:59.420Z,25.00
2023-01-23T23:07:30.846Z,23.17
2023-01-23T23:10:07.374Z,25.07
2023-01-23T23:12:38.872Z,24.15
2023-01-23T23:15:10.522Z,23.30
2023-01-23T23:17:42.024Z,24.87
2023-01-23T23:20:13.474Z,22.85
2023-01-23T23:22:45.179Z,24.50
2023-01-23T23:25:16.750Z,23.05
2023-01-23T23:27:48.147Z,22.10
2023-01-23T23:30:19.682Z,25.00
2023-01-23T23:32:51.138Z,24.13
2023-01-23T23:35:22.920Z,23.25
2023-01-23T23:37:54.636Z,24.17
2023-01-23T23:40:26.064Z,22.80
2023-01-23T23:42:57.514Z,23.08
2023-01-23T23:45:29.139Z,23.67
2023-01-23T23:48:00.642Z,24.40
2023-01-23T23:50:32.790Z,22.13
2023-01-23T23:53:04.189Z,21.75
2023-01-23T23:55:35.730Z,22.45
2023-01-23T23:58:07.375Z,22.00
